Caitlin Ann — WDF8998 — position and weather

sailwx.info

Track history (hours):
 
Tides and Currents Weather Stations Pressure Air Temp Water Temp Dewpoint Dewpoint Depression Visibility Wind Speed Wind Dir Waves Ship Positions

Caitlin Ann

Owner: Donjon Marine Co., Inc., Hillside, NJ. More information available from US FCC via Universal Licensing System and Coast Guard Vessel Documentation Center.

Last reported at 2018-Jul-20 02:30 UTC. Time now 2018-Jul-20 02:54 UTC.
Position N 40°41' W 074°05'.

Length 30 m; draft 3.2 m.

Type: Towing. MMSI: 367500750.

Date/timePositionNaut miles runAvg speedWind from/ knotsBaromVisibWave heightAir tempDewpointWater temp
2018-Jul-20 02:30N 40°41' W 074°05'0 0.0
2018-Jul-20 02:00N 40°41' W 074°05'0 0.7
2018-Jul-20 01:30N 40°41' W 074°04'2 4.9
2018-Jul-20 01:00N 40°41' W 074°01'4 8.0
2018-Jul-20 00:30N 40°44' W 073°58'1 1.5
2018-Jul-20 00:00N 40°44' W 073°57'0 0.1
2018-Jul-19 23:28N 40°44' W 073°57'1 2.1
2018-Jul-19 23:00N 40°44' W 073°58'2 3.9
2018-Jul-19 22:30N 40°42' W 073°60'3 5.5
2018-Jul-19 22:00N 40°40' W 074°02'2 3.6
2018-Jul-19 21:30N 40°41' W 074°04'0 0.4
2018-Jul-19 21:00N 40°41' W 074°05'0 0.0
2018-Jul-19 20:30N 40°41' W 074°05'0 0.0
2018-Jul-19 20:00N 40°41' W 074°05'0 0.0
2018-Jul-19 19:30N 40°41' W 074°05'0 0.0
2018-Jul-19 19:00N 40°41' W 074°05'0 0.7
2018-Jul-19 18:31N 40°41' W 074°04'2 4.5
2018-Jul-19 18:00N 40°40' W 074°01'1 2.4
2018-Jul-19 17:30N 40°40' W 073°60'1 1.1
2018-Jul-19 17:00N 40°40' W 074°00'3 5.9
2018-Jul-19 16:30N 40°41' W 074°04'1 1.3
2018-Jul-19 16:00N 40°41' W 074°05'0 0.0
2018-Jul-19 15:30N 40°41' W 074°05'1 2.5
2018-Jul-19 15:00N 40°41' W 074°03'4 4.3
2018-Jul-19 14:00N 40°45' W 074°01'3 6.4
2018-Jul-19 13:30N 40°42' W 074°02'3 6.3
2018-Jul-19 13:00N 40°39' W 074°05'4 7.8
2018-Jul-19 12:30N 40°39' W 074°10'2 1.6
2018-Jul-19 10:57N 40°37' W 074°12'3 6.0
2018-Jul-19 10:26N 40°39' W 074°09'3 5.9
2018-Jul-19 10:00N 40°39' W 074°05'3 6.9
2018-Jul-19 09:30N 40°41' W 074°02'4 7.5
2018-Jul-19 09:00N 40°45' W 074°01'2 2.7
2018-Jul-19 08:21N 40°46' W 073°60'0 0.0
2018-Jul-19 07:45N 40°46' W 073°60'0 0.0
2018-Jul-19 07:29N 40°46' W 073°60'0 0.0
2018-Jul-19 07:00N 40°46' W 073°60'0 0.0
2018-Jul-19 05:25N 40°46' W 073°60'0 0.0
2018-Jul-19 04:59N 40°46' W 073°60'0 0.0
2018-Jul-19 02:54N 40°46' W 073°60'3 8.0
2018-Jul-19 02:30N 40°44' W 074°02'3 6.6
2018-Jul-19 02:00N 40°41' W 074°04'0 0.7
2018-Jul-19 01:29N 40°41' W 074°05'0 0.0
2018-Jul-19 01:00N 40°41' W 074°05'1 2.6
2018-Jul-19 00:30N 40°41' W 074°03'4 8.8
2018-Jul-19 00:00N 40°43' W 073°58'2 3.3
2018-Jul-18 23:31N 40°44' W 073°57'1 1.3
2018-Jul-18 23:00N 40°44' W 073°58'2 5.0
2018-Jul-18 22:30N 40°42' W 073°60'3 6.1
2018-Jul-18 22:00N 40°40' W 074°02'2 3.0
2018-Jul-18 21:30N 40°41' W 074°04'3 5.3
2018-Jul-18 21:00N 40°39' W 074°06'2 4.0
2018-Jul-18 20:30N 40°40' W 074°08'1 1.6
2018-Jul-18 20:00N 40°41' W 074°09'0 0.4
2018-Jul-18 19:30N 40°41' W 074°08'0 0.4
2018-Jul-18 19:00N 40°41' W 074°08'0 0.0
2018-Jul-18 18:30N 40°41' W 074°08'0 0.0
2018-Jul-18 18:00N 40°41' W 074°08'1 1.2
2018-Jul-18 17:30N 40°41' W 074°08'0 0.2
2018-Jul-18 17:00N 40°41' W 074°08'1 1.8
2018-Jul-18 16:30N 40°42' W 074°08'3 5.5
2018-Jul-18 16:00N 40°39' W 074°09'0 0.7
2018-Jul-18 15:30N 40°38' W 074°09'3 0.9
2018-Jul-18 12:37N 40°37' W 074°12'1 8.1
2018-Jul-18 12:28N 40°38' W 074°12'3 6.9
2018-Jul-18 12:00N 40°41' W 074°08'0 0.8
2018-Jul-18 11:31N 40°41' W 074°09'0 0.1
2018-Jul-18 10:30N 40°41' W 074°09'0 0.9
2018-Jul-18 10:00N 40°40' W 074°08'1 2.7
2018-Jul-18 09:29N 40°39' W 074°09'2 3.9
2018-Jul-18 08:53N 40°39' W 074°06'2 5.2
2018-Jul-18 08:30N 40°40' W 074°04'1 2.3
2018-Jul-18 08:00N 40°41' W 074°04'0 0.1
2018-Jul-18 07:31N 40°41' W 074°05'0 0.1
2018-Jul-18 07:00N 40°41' W 074°05'2 4.6
2018-Jul-18 06:30N 40°42' W 074°02'3 6.0
2018-Jul-18 06:00N 40°43' W 073°58'2 3.5
2018-Jul-18 05:29N 40°44' W 073°56'1 1.2
2018-Jul-18 04:56N 40°43' W 073°56'1 2.5
2018-Jul-18 04:27N 40°44' W 073°56'0 0.5
2018-Jul-18 04:00N 40°44' W 073°57'3 6.9
2018-Jul-18 03:30N 40°42' W 074°00'3 6.5
2018-Jul-18 03:00N 40°41' W 074°04'0 1.0
2018-Jul-18 02:30N 40°41' W 074°05'0 0.0
2018-Jul-18 02:00N 40°41' W 074°05'0 0.0
2018-Jul-18 01:30N 40°41' W 074°05'0 0.0
2018-Jul-18 01:00N 40°41' W 074°05'0 0.0
2018-Jul-18 00:30N 40°41' W 074°05'0 0.0
2018-Jul-18 00:00N 40°41' W 074°05'0 0.0
2018-Jul-17 23:30N 40°41' W 074°05'0 0.3
2018-Jul-17 23:00N 40°41' W 074°04'0 0.2
2018-Jul-17 22:30N 40°41' W 074°05'3 6.3
2018-Jul-17 22:00N 40°39' W 074°07'4 6.1
2018-Jul-17 21:24N 40°38' W 074°12'1 0.3
2018-Jul-17 19:13N 40°37' W 074°12'1 6.4
2018-Jul-17 19:00N 40°39' W 074°11'2 3.3
2018-Jul-17 18:27N 40°39' W 074°09'3 5.5
2018-Jul-17 17:59N 40°39' W 074°05'3 5.9
2018-Jul-17 17:30N 40°41' W 074°03'3 5.8
2018-Jul-17 17:00N 40°44' W 074°02'3 5.1
2018-Jul-17 16:30N 40°46' W 074°01'1 1.5
2018-Jul-17 15:59N 40°46' W 073°60'0 0.0
2018-Jul-17 15:16N 40°46' W 073°60'0 0.0
2018-Jul-17 14:55N 40°46' W 073°60'0 0.0
2018-Jul-17 14:14N 40°46' W 073°60'0 0.0
2018-Jul-17 13:55N 40°46' W 073°60'2 5.1
2018-Jul-17 13:30N 40°45' W 074°01'3 6.8
2018-Jul-17 13:00N 40°41' W 074°02'3 6.7
2018-Jul-17 12:30N 40°39' W 074°06'3 5.9
2018-Jul-17 11:57N 40°39' W 074°10'2 2.2
2018-Jul-17 10:55N 40°37' W 074°12'4 9.1
2018-Jul-17 10:30N 40°40' W 074°09'2 4.4
2018-Jul-17 10:00N 40°42' W 074°09'0 0.0
2018-Jul-17 09:30N 40°42' W 074°09'0 0.0
2018-Jul-17 09:00N 40°42' W 074°09'0 0.0
2018-Jul-17 08:30N 40°42' W 074°09'0 0.0
2018-Jul-17 08:00N 40°42' W 074°09'0 0.0
2018-Jul-17 07:30N 40°42' W 074°09'0 0.0
2018-Jul-17 07:00N 40°42' W 074°09'0 0.0
2018-Jul-17 06:30N 40°42' W 074°09'0 0.0
2018-Jul-17 06:00N 40°42' W 074°09'0 0.0
2018-Jul-17 05:30N 40°42' W 074°09'1 2.1
2018-Jul-17 05:00N 40°41' W 074°08'0 0.5
2018-Jul-17 04:30N 40°41' W 074°08'2 3.3
2018-Jul-17 04:00N 40°39' W 074°09'2 4.5
2018-Jul-17 03:27N 40°39' W 074°05'2 4.8
2018-Jul-17 03:01N 40°40' W 074°04'0 1.0
2018-Jul-17 02:30N 40°41' W 074°04'4 7.8
2018-Jul-17 02:00N 40°39' W 074°08'2 4.7
2018-Jul-17 01:30N 40°41' W 074°08'1 1.5
2018-Jul-17 01:00N 40°42' W 074°08'0 0.9
2018-Jul-17 00:30N 40°42' W 074°09'1 0.8
2018-Jul-16 23:30N 40°41' W 074°08'0 0.1
2018-Jul-16 22:53N 40°41' W 074°08'0 0.0
2018-Jul-16 22:27N 40°41' W 074°08'1 2.1
2018-Jul-16 22:00N 40°42' W 074°09'0 0.0
2018-Jul-16 21:30N 40°42' W 074°09'0 0.0
2018-Jul-16 21:00N 40°42' W 074°09'1 2.3
2018-Jul-16 20:30N 40°41' W 074°08'1 1.3
2018-Jul-16 20:00N 40°42' W 074°08'0 0.9
2018-Jul-16 19:27N 40°42' W 074°09'2 3.5
2018-Jul-16 19:00N 40°40' W 074°08'4 1.3
2018-Jul-16 15:59N 40°38' W 074°12'4 8.2
2018-Jul-16 15:30N 40°40' W 074°08'2 3.3
2018-Jul-16 14:59N 40°42' W 074°09'0 0.4
2018-Jul-16 14:30N 40°42' W 074°09'1 2.0
2018-Jul-16 14:00N 40°41' W 074°08'0 0.7
2018-Jul-16 13:30N 40°41' W 074°09'0 0.1
2018-Jul-16 13:00N 40°41' W 074°09'0 0.1
2018-Jul-16 12:29N 40°41' W 074°09'0 0.0
2018-Jul-16 12:00N 40°41' W 074°09'0 0.0
2018-Jul-16 11:30N 40°41' W 074°09'0 0.2
2018-Jul-16 11:00N 40°41' W 074°09'0 0.1
2018-Jul-16 10:31N 40°41' W 074°09'0 0.0
2018-Jul-16 09:55N 40°41' W 074°09'0 0.8
2018-Jul-16 09:30N 40°41' W 074°08'1 0.2
2018-Jul-16 02:38N 40°42' W 074°09'0 0.0
2018-Jul-16 02:11N 40°42' W 074°09'0 0.0
2018-Jul-16 02:00N 40°42' W 074°09'0 0.0
2018-Jul-16 01:30N 40°42' W 074°09'0 0.0
2018-Jul-16 00:53N 40°42' W 074°09'0 0.0
2018-Jul-16 00:30N 40°42' W 074°09'0 0.0
2018-Jul-16 00:00N 40°42' W 074°09'0 0.0
2018-Jul-15 23:30N 40°42' W 074°09'0 0.0
2018-Jul-15 23:00N 40°42' W 074°09'0 0.0
2018-Jul-15 22:30N 40°42' W 074°09'0 0.0
2018-Jul-15 22:00N 40°42' W 074°09'0 0.0
2018-Jul-15 21:30N 40°42' W 074°09'0 0.0
2018-Jul-15 21:00N 40°42' W 074°09'0 0.0
2018-Jul-15 20:30N 40°42' W 074°09'0 0.0
2018-Jul-15 19:59N 40°42' W 074°09'0 0.0
2018-Jul-15 19:30N 40°42' W 074°09'0 0.0
2018-Jul-15 19:00N 40°42' W 074°09'0 0.0
2018-Jul-15 18:30N 40°42' W 074°09'0 0.0
2018-Jul-15 18:00N 40°42' W 074°09'0 0.0
2018-Jul-15 17:28N 40°42' W 074°09'0 0.0
2018-Jul-15 17:00N 40°42' W 074°09'0 0.0
2018-Jul-15 16:12N 40°42' W 074°09'0 0.0
2018-Jul-15 15:59N 40°42' W 074°09'0 0.0
2018-Jul-15 15:29N 40°42' W 074°09'0 0.0
2018-Jul-15 14:59N 40°42' W 074°09'0 0.0
2018-Jul-15 14:25N 40°42' W 074°09'0 0.0
2018-Jul-15 13:17N 40°42' W 074°09'0 0.0
2018-Jul-15 11:55N 40°42' W 074°09'0 0.0
2018-Jul-15 11:29N 40°42' W 074°09'0 0.0
2018-Jul-15 10:52N 40°42' W 074°09'0 0.0
2018-Jul-15 10:23N 40°42' W 074°09'0 0.0
2018-Jul-15 09:59N 40°42' W 074°09'0 0.0
2018-Jul-15 09:29N 40°42' W 074°09'0 0.0
2018-Jul-15 09:00N 40°42' W 074°09'0 0.0
2018-Jul-15 08:30N 40°42' W 074°09'0 0.0
2018-Jul-15 08:00N 40°42' W 074°09'0 0.0
2018-Jul-15 07:29N 40°42' W 074°09'0 0.0
2018-Jul-15 07:00N 40°42' W 074°09'0 0.0
2018-Jul-15 06:30N 40°42' W 074°09'0 0.0
2018-Jul-15 06:00N 40°42' W 074°09'0 0.0
2018-Jul-15 05:30N 40°42' W 074°09'0 0.0
2018-Jul-15 05:00N 40°42' W 074°09'0 0.0
2018-Jul-15 04:30N 40°42' W 074°09'0 0.0
2018-Jul-15 04:00N 40°42' W 074°09'0 0.0
2018-Jul-15 03:30N 40°42' W 074°09'0 0.0
2018-Jul-15 03:00N 40°42' W 074°09'2 3.4
2018-Jul-15 02:30N 40°41' W 074°08'3 5.3
2018-Jul-15 02:00N 40°39' W 074°05'4 8.3
2018-Jul-15 01:30N 40°42' W 074°02'4 8.2
2018-Jul-15 01:00N 40°46' W 074°00'2 4.9
2018-Jul-15 00:30N 40°44' W 074°01'4 8.3
2018-Jul-15 00:00N 40°40' W 074°03'3 6.0
2018-Jul-14 23:30N 40°39' W 074°07'3 5.7
2018-Jul-14 23:00N 40°39' W 074°10'1 0.3
2018-Jul-14 17:04N 40°38' W 074°12'0 7.7
2018-Jul-14 17:00N 40°38' W 074°12'3 6.0
2018-Jul-14 16:30N 40°39' W 074°08'3 5.2
2018-Jul-14 16:00N 40°39' W 074°04'3 6.4
2018-Jul-14 15:30N 40°42' W 074°02'3 6.2
2018-Jul-14 15:00N 40°45' W 074°01'2 3.7
2018-Jul-14 14:30N 40°46' W 073°60'0 0.0
2018-Jul-14 12:49N 40°46' W 073°60'0 0.0
2018-Jul-14 12:20N 40°46' W 073°60'3 8.3
2018-Jul-14 12:00N 40°44' W 074°01'5 9.0
2018-Jul-14 11:30N 40°40' W 074°03'4 7.4
2018-Jul-14 11:00N 40°39' W 074°08'3 5.6
2018-Jul-14 10:30N 40°41' W 074°08'1 1.9
2018-Jul-14 10:00N 40°42' W 074°09'0 0.1
2018-Jul-14 09:30N 40°42' W 074°09'0 0.0
2018-Jul-14 09:00N 40°42' W 074°09'0 0.0
2018-Jul-14 08:30N 40°42' W 074°09'0 0.0
2018-Jul-14 07:54N 40°42' W 074°09'0 0.0
2018-Jul-14 07:30N 40°42' W 074°09'0 0.0
2018-Jul-14 07:00N 40°42' W 074°09'0 0.0
2018-Jul-14 06:30N 40°42' W 074°09'0 0.0
2018-Jul-14 06:00N 40°42' W 074°09'0 0.0
2018-Jul-14 05:30N 40°42' W 074°09'0 0.0
2018-Jul-14 05:00N 40°42' W 074°09'0 0.0
2018-Jul-14 04:30N 40°42' W 074°09'0 0.0
2018-Jul-14 04:00N 40°42' W 074°09'0 0.0
2018-Jul-14 03:30N 40°42' W 074°09'0 0.0
2018-Jul-14 03:00N 40°42' W 074°09'0 0.0
2018-Jul-14 02:30N 40°42' W 074°09'0 0.0
2018-Jul-14 02:00N 40°42' W 074°09'0 0.0
2018-Jul-14 01:30N 40°42' W 074°09'0 0.0
2018-Jul-14 01:00N 40°42' W 074°09'0 0.0
2018-Jul-14 00:29N 40°42' W 074°09'0 0.0
2018-Jul-14 00:00N 40°42' W 074°09'0 0.0
2018-Jul-13 23:30N 40°42' W 074°09'0 0.0
2018-Jul-13 23:00N 40°42' W 074°09'0 0.0
2018-Jul-13 22:29N 40°42' W 074°09'0 0.0
2018-Jul-13 22:00N 40°42' W 074°09'0 0.1
2018-Jul-13 21:30N 40°42' W 074°09'0 0.0
2018-Jul-13 20:50N 40°42' W 074°09'0 0.0
2018-Jul-13 20:30N 40°42' W 074°09'0 0.0
2018-Jul-13 19:10N 40°42' W 074°09'0 0.0
2018-Jul-13 18:56N 40°42' W 074°09'0 0.0
2018-Jul-13 18:29N 40°42' W 074°09'0 0.0
2018-Jul-13 17:53N 40°42' W 074°09'0 0.0
2018-Jul-13 17:27N 40°42' W 074°09'0 0.0
2018-Jul-13 17:00N 40°42' W 074°09'0 0.0
2018-Jul-13 16:30N 40°42' W 074°09'0 0.0
2018-Jul-13 16:00N 40°42' W 074°09'0 0.0
2018-Jul-13 15:28N 40°42' W 074°09'0 0.0
2018-Jul-13 14:59N 40°42' W 074°09'0 0.0
2018-Jul-13 14:00N 40°42' W 074°09'0 0.0
2018-Jul-13 13:26N 40°42' W 074°09'0 0.0
2018-Jul-13 12:59N 40°42' W 074°09'0 0.0
2018-Jul-13 12:25N 40°42' W 074°09'0 0.0
2018-Jul-13 12:00N 40°42' W 074°09'0 0.0
2018-Jul-13 11:28N 40°42' W 074°09'0 0.0
2018-Jul-13 10:58N 40°42' W 074°09'0 0.0
2018-Jul-13 09:05N 40°42' W 074°09'0 0.0
2018-Jul-13 09:00N 40°42' W 074°09'0 0.0
2018-Jul-13 07:57N 40°42' W 074°09'0 0.0
2018-Jul-13 07:29N 40°42' W 074°09'0 0.0
2018-Jul-13 07:00N 40°42' W 074°09'3 5.3
2018-Jul-13 06:30N 40°39' W 074°09'3 6.0
2018-Jul-13 06:01N 40°39' W 074°05'2 3.7
2018-Jul-13 05:30N 40°41' W 074°05'0 0.0
2018-Jul-13 05:00N 40°41' W 074°05'0 0.3
2018-Jul-13 04:30N 40°41' W 074°04'0 0.3
2018-Jul-13 04:00N 40°41' W 074°05'2 3.5
2018-Jul-13 03:30N 40°40' W 074°03'3 5.6
2018-Jul-13 03:00N 40°42' W 073°60'3 5.6
2018-Jul-13 02:30N 40°45' W 073°58'1 0.1
2018-Jul-12 09:12N 40°46' W 073°57'2 8.7
2018-Jul-12 09:00N 40°44' W 073°58'4 7.2
2018-Jul-12 08:30N 40°42' W 074°01'2 4.5
2018-Jul-12 08:00N 40°41' W 074°04'0 0.8
2018-Jul-12 07:30N 40°41' W 074°05'0 0.0
2018-Jul-12 07:00N 40°41' W 074°05'0 0.1
2018-Jul-12 06:30N 40°41' W 074°05'0 0.0
2018-Jul-12 06:00N 40°41' W 074°05'0 0.0
2018-Jul-12 05:30N 40°41' W 074°05'0 0.0
2018-Jul-12 05:00N 40°41' W 074°05'0 0.0
2018-Jul-12 04:30N 40°41' W 074°05'0 0.0
2018-Jul-12 04:00N 40°41' W 074°05'0 0.0
2018-Jul-12 03:30N 40°41' W 074°05'0 0.0
2018-Jul-12 03:00N 40°41' W 074°05'0 0.0
2018-Jul-12 02:30N 40°41' W 074°05'0 0.0
2018-Jul-12 02:00N 40°41' W 074°05'0 0.0
2018-Jul-12 01:30N 40°41' W 074°05'0 0.0
2018-Jul-12 01:00N 40°41' W 074°05'0 0.0
2018-Jul-12 00:30N 40°41' W 074°05'0 0.0
2018-Jul-12 00:00N 40°41' W 074°05'0 0.0
2018-Jul-11 23:30N 40°41' W 074°05'0 0.0
2018-Jul-11 23:00N 40°41' W 074°05'0 0.0
2018-Jul-11 22:30N 40°41' W 074°05'0 0.1
2018-Jul-11 22:01N 40°41' W 074°05'1 2.1
2018-Jul-11 21:30N 40°41' W 074°03'3 6.1
2018-Jul-11 21:00N 40°42' W 074°00'2 4.1
2018-Jul-11 20:30N 40°44' W 073°58'1 2.4
2018-Jul-11 20:01N 40°44' W 073°57'1 1.8
2018-Jul-11 19:30N 40°44' W 073°58'4 7.5
2018-Jul-11 19:00N 40°41' W 074°01'3 5.4
2018-Jul-11 18:30N 40°41' W 074°04'0 0.2
2018-Jul-11 18:00N 40°41' W 074°05'0 0.0
2018-Jul-11 17:30N 40°41' W 074°05'0 0.0
2018-Jul-11 17:00N 40°41' W 074°05'0 0.0
2018-Jul-11 16:30N 40°41' W 074°05'0 0.0
2018-Jul-11 16:00N 40°41' W 074°05'0 0.0
2018-Jul-11 15:30N 40°41' W 074°05'0 0.0
2018-Jul-11 15:00N 40°41' W 074°05'0 0.0
2018-Jul-11 14:30N 40°41' W 074°05'0 0.0
2018-Jul-11 14:00N 40°41' W 074°05'0 0.0
2018-Jul-11 13:30N 40°41' W 074°05'0 0.0
2018-Jul-11 13:00N 40°41' W 074°05'0 0.0
2018-Jul-11 12:30N 40°41' W 074°05'0 0.0
2018-Jul-11 12:00N 40°41' W 074°05'0 0.0
2018-Jul-11 11:30N 40°41' W 074°05'0 0.0
2018-Jul-11 11:00N 40°41' W 074°05'0 0.0
2018-Jul-11 10:30N 40°41' W 074°05'0 0.0
2018-Jul-11 10:00N 40°41' W 074°05'0 0.0
2018-Jul-11 09:30N 40°41' W 074°05'0 0.0
2018-Jul-11 09:00N 40°41' W 074°05'0 0.0
2018-Jul-11 08:30N 40°41' W 074°05'0 0.0
2018-Jul-11 08:00N 40°41' W 074°05'0 0.0
2018-Jul-11 07:29N 40°41' W 074°05'0 0.0
2018-Jul-11 07:00N 40°41' W 074°05'0 0.0
2018-Jul-11 06:30N 40°41' W 074°05'0 0.0
2018-Jul-11 06:00N 40°41' W 074°05'0 0.0
2018-Jul-11 05:30N 40°41' W 074°05'0 0.0
2018-Jul-11 05:00N 40°41' W 074°05'0 0.0
2018-Jul-11 04:30N 40°41' W 074°05'0 0.9
2018-Jul-11 04:00N 40°41' W 074°04'2 4.8
2018-Jul-11 03:30N 40°41' W 074°01'4 7.9
2018-Jul-11 03:00N 40°44' W 073°58'1 1.5
2018-Jul-11 02:30N 40°44' W 073°57'0 0.0
2018-Jul-11 01:09N 40°44' W 073°57'0 0.0
2018-Jul-11 00:59N 40°44' W 073°57'2 4.1
2018-Jul-11 00:30N 40°43' W 073°58'4 7.0
2018-Jul-11 00:00N 40°41' W 074°02'2 4.1
2018-Jul-10 23:30N 40°41' W 074°05'1 1.1
2018-Jul-10 23:00N 40°41' W 074°04'4 8.0
2018-Jul-10 22:30N 40°39' W 074°08'3 6.9
2018-Jul-10 22:00N 40°42' W 074°09'0 0.0
2018-Jul-10 20:24N 40°42' W 074°09'0 0.0
2018-Jul-10 19:59N 40°42' W 074°09'0 0.0
2018-Jul-10 19:30N 40°42' W 074°09'0 0.0
2018-Jul-10 19:00N 40°42' W 074°09'0 0.0
2018-Jul-10 18:30N 40°42' W 074°09'0 0.0
2018-Jul-10 18:00N 40°42' W 074°09'0 0.0
2018-Jul-10 17:30N 40°42' W 074°09'0 0.0
2018-Jul-10 17:00N 40°42' W 074°09'0 0.0
2018-Jul-10 16:30N 40°42' W 074°09'0 0.0
2018-Jul-10 16:00N 40°42' W 074°09'0 0.0
2018-Jul-10 15:30N 40°42' W 074°09'0 0.0
2018-Jul-10 14:54N 40°42' W 074°09'0 0.0
2018-Jul-10 14:29N 40°42' W 074°09'0 0.0
2018-Jul-10 14:00N 40°42' W 074°09'0 0.0
2018-Jul-10 13:30N 40°42' W 074°09'0 0.0
2018-Jul-10 12:59N 40°42' W 074°09'0 0.0
2018-Jul-10 12:30N 40°42' W 074°09'0 0.0
2018-Jul-10 12:00N 40°42' W 074°09'0 0.0
2018-Jul-10 11:30N 40°42' W 074°09'0 0.0
2018-Jul-10 11:00N 40°42' W 074°09'0 0.0
2018-Jul-10 10:30N 40°42' W 074°09'0 0.0
2018-Jul-10 09:58N 40°42' W 074°09'0 0.0
2018-Jul-10 09:30N 40°42' W 074°09'0 0.0
2018-Jul-10 08:59N 40°42' W 074°09'0 0.0
2018-Jul-10 08:28N 40°42' W 074°09'0 0.0
2018-Jul-10 07:57N 40°42' W 074°09'0 0.0
2018-Jul-10 07:29N 40°42' W 074°09'0 0.0
2018-Jul-10 06:59N 40°42' W 074°09'0 0.0
2018-Jul-10 06:30N 40°42' W 074°09'0 0.0
2018-Jul-10 05:57N 40°42' W 074°09'0 0.0
2018-Jul-10 05:29N 40°42' W 074°09'0 0.0
2018-Jul-10 04:59N 40°42' W 074°09'0 0.0
2018-Jul-10 04:30N 40°42' W 074°09'0 0.0
2018-Jul-10 04:00N 40°42' W 074°09'0 0.0
2018-Jul-10 03:26N 40°42' W 074°09'0 0.0
2018-Jul-10 02:59N 40°42' W 074°09'  
Track history (hours):
 
Tides and Currents Weather Stations Pressure Air Temp Water Temp Dewpoint Dewpoint Depression Visibility Wind Speed Wind Dir Waves Ship Positions

Caitlin Ann

Owner: Donjon Marine Co., Inc., Hillside, NJ. More information available from US FCC via Universal Licensing System and Coast Guard Vessel Documentation Center.

Last reported at 2018-Jul-20 02:30 UTC. Time now 2018-Jul-20 02:54 UTC.
Position N 40°41' W 074°05'.

Length 30 m; draft 3.2 m.

Type: Towing. MMSI: 367500750.

Date/timePositionNaut miles runAvg speedWind from/ knotsBaromVisibWave heightAir tempDewpointWater temp
2018-Jul-20 02:30N 40°41' W 074°05'0 0.0
2018-Jul-20 02:00N 40°41' W 074°05'0 0.7
2018-Jul-20 01:30N 40°41' W 074°04'2 4.9
2018-Jul-20 01:00N 40°41' W 074°01'4 8.0
2018-Jul-20 00:30N 40°44' W 073°58'1 1.5
2018-Jul-20 00:00N 40°44' W 073°57'0 0.1
2018-Jul-19 23:28N 40°44' W 073°57'1 2.1
2018-Jul-19 23:00N 40°44' W 073°58'2 3.9
2018-Jul-19 22:30N 40°42' W 073°60'3 5.5
2018-Jul-19 22:00N 40°40' W 074°02'2 3.6
2018-Jul-19 21:30N 40°41' W 074°04'0 0.4
2018-Jul-19 21:00N 40°41' W 074°05'0 0.0
2018-Jul-19 20:30N 40°41' W 074°05'0 0.0
2018-Jul-19 20:00N 40°41' W 074°05'0 0.0
2018-Jul-19 19:30N 40°41' W 074°05'0 0.0
2018-Jul-19 19:00N 40°41' W 074°05'0 0.7
2018-Jul-19 18:31N 40°41' W 074°04'2 4.5
2018-Jul-19 18:00N 40°40' W 074°01'1 2.4
2018-Jul-19 17:30N 40°40' W 073°60'1 1.1
2018-Jul-19 17:00N 40°40' W 074°00'3 5.9
2018-Jul-19 16:30N 40°41' W 074°04'1 1.3
2018-Jul-19 16:00N 40°41' W 074°05'0 0.0
2018-Jul-19 15:30N 40°41' W 074°05'1 2.5
2018-Jul-19 15:00N 40°41' W 074°03'4 4.3
2018-Jul-19 14:00N 40°45' W 074°01'3 6.4
2018-Jul-19 13:30N 40°42' W 074°02'3 6.3
2018-Jul-19 13:00N 40°39' W 074°05'4 7.8
2018-Jul-19 12:30N 40°39' W 074°10'2 1.6
2018-Jul-19 10:57N 40°37' W 074°12'3 6.0
2018-Jul-19 10:26N 40°39' W 074°09'3 5.9
2018-Jul-19 10:00N 40°39' W 074°05'3 6.9
2018-Jul-19 09:30N 40°41' W 074°02'4 7.5
2018-Jul-19 09:00N 40°45' W 074°01'2 2.7
2018-Jul-19 08:21N 40°46' W 073°60'0 0.0
2018-Jul-19 07:45N 40°46' W 073°60'0 0.0
2018-Jul-19 07:29N 40°46' W 073°60'0 0.0
2018-Jul-19 07:00N 40°46' W 073°60'0 0.0
2018-Jul-19 05:25N 40°46' W 073°60'0 0.0
2018-Jul-19 04:59N 40°46' W 073°60'0 0.0
2018-Jul-19 02:54N 40°46' W 073°60'3 8.0
2018-Jul-19 02:30N 40°44' W 074°02'3 6.6
2018-Jul-19 02:00N 40°41' W 074°04'0 0.7
2018-Jul-19 01:29N 40°41' W 074°05'0 0.0
2018-Jul-19 01:00N 40°41' W 074°05'1 2.6
2018-Jul-19 00:30N 40°41' W 074°03'4 8.8
2018-Jul-19 00:00N 40°43' W 073°58'2 3.3
2018-Jul-18 23:31N 40°44' W 073°57'1 1.3
2018-Jul-18 23:00N 40°44' W 073°58'2 5.0
2018-Jul-18 22:30N 40°42' W 073°60'3 6.1
2018-Jul-18 22:00N 40°40' W 074°02'2 3.0
2018-Jul-18 21:30N 40°41' W 074°04'3 5.3
2018-Jul-18 21:00N 40°39' W 074°06'2 4.0
2018-Jul-18 20:30N 40°40' W 074°08'1 1.6
2018-Jul-18 20:00N 40°41' W 074°09'0 0.4
2018-Jul-18 19:30N 40°41' W 074°08'0 0.4
2018-Jul-18 19:00N 40°41' W 074°08'0 0.0
2018-Jul-18 18:30N 40°41' W 074°08'0 0.0
2018-Jul-18 18:00N 40°41' W 074°08'1 1.2
2018-Jul-18 17:30N 40°41' W 074°08'0 0.2
2018-Jul-18 17:00N 40°41' W 074°08'1 1.8
2018-Jul-18 16:30N 40°42' W 074°08'3 5.5
2018-Jul-18 16:00N 40°39' W 074°09'0 0.7
2018-Jul-18 15:30N 40°38' W 074°09'3 0.9
2018-Jul-18 12:37N 40°37' W 074°12'1 8.1
2018-Jul-18 12:28N 40°38' W 074°12'3 6.9
2018-Jul-18 12:00N 40°41' W 074°08'0 0.8
2018-Jul-18 11:31N 40°41' W 074°09'0 0.1
2018-Jul-18 10:30N 40°41' W 074°09'0 0.9
2018-Jul-18 10:00N 40°40' W 074°08'1 2.7
2018-Jul-18 09:29N 40°39' W 074°09'2 3.9
2018-Jul-18 08:53N 40°39' W 074°06'2 5.2
2018-Jul-18 08:30N 40°40' W 074°04'1 2.3
2018-Jul-18 08:00N 40°41' W 074°04'0 0.1
2018-Jul-18 07:31N 40°41' W 074°05'0 0.1
2018-Jul-18 07:00N 40°41' W 074°05'2 4.6
2018-Jul-18 06:30N 40°42' W 074°02'3 6.0
2018-Jul-18 06:00N 40°43' W 073°58'2 3.5
2018-Jul-18 05:29N 40°44' W 073°56'1 1.2
2018-Jul-18 04:56N 40°43' W 073°56'1 2.5
2018-Jul-18 04:27N 40°44' W 073°56'0 0.5
2018-Jul-18 04:00N 40°44' W 073°57'3 6.9
2018-Jul-18 03:30N 40°42' W 074°00'3 6.5
2018-Jul-18 03:00N 40°41' W 074°04'0 1.0
2018-Jul-18 02:30N 40°41' W 074°05'0 0.0
2018-Jul-18 02:00N 40°41' W 074°05'0 0.0
2018-Jul-18 01:30N 40°41' W 074°05'0 0.0
2018-Jul-18 01:00N 40°41' W 074°05'0 0.0
2018-Jul-18 00:30N 40°41' W 074°05'0 0.0
2018-Jul-18 00:00N 40°41' W 074°05'0 0.0
2018-Jul-17 23:30N 40°41' W 074°05'0 0.3
2018-Jul-17 23:00N 40°41' W 074°04'0 0.2
2018-Jul-17 22:30N 40°41' W 074°05'3 6.3
2018-Jul-17 22:00N 40°39' W 074°07'4 6.1
2018-Jul-17 21:24N 40°38' W 074°12'1 0.3
2018-Jul-17 19:13N 40°37' W 074°12'1 6.4
2018-Jul-17 19:00N 40°39' W 074°11'2 3.3
2018-Jul-17 18:27N 40°39' W 074°09'3 5.5
2018-Jul-17 17:59N 40°39' W 074°05'3 5.9
2018-Jul-17 17:30N 40°41' W 074°03'3 5.8
2018-Jul-17 17:00N 40°44' W 074°02'3 5.1
2018-Jul-17 16:30N 40°46' W 074°01'1 1.5
2018-Jul-17 15:59N 40°46' W 073°60'0 0.0
2018-Jul-17 15:16N 40°46' W 073°60'0 0.0
2018-Jul-17 14:55N 40°46' W 073°60'0 0.0
2018-Jul-17 14:14N 40°46' W 073°60'0 0.0
2018-Jul-17 13:55N 40°46' W 073°60'2 5.1
2018-Jul-17 13:30N 40°45' W 074°01'3 6.8
2018-Jul-17 13:00N 40°41' W 074°02'3 6.7
2018-Jul-17 12:30N 40°39' W 074°06'3 5.9
2018-Jul-17 11:57N 40°39' W 074°10'2 2.2
2018-Jul-17 10:55N 40°37' W 074°12'4 9.1
2018-Jul-17 10:30N 40°40' W 074°09'2 4.4
2018-Jul-17 10:00N 40°42' W 074°09'0 0.0
2018-Jul-17 09:30N 40°42' W 074°09'0 0.0
2018-Jul-17 09:00N 40°42' W 074°09'0 0.0
2018-Jul-17 08:30N 40°42' W 074°09'0 0.0
2018-Jul-17 08:00N 40°42' W 074°09'0 0.0
2018-Jul-17 07:30N 40°42' W 074°09'0 0.0
2018-Jul-17 07:00N 40°42' W 074°09'0 0.0
2018-Jul-17 06:30N 40°42' W 074°09'0 0.0
2018-Jul-17 06:00N 40°42' W 074°09'0 0.0
2018-Jul-17 05:30N 40°42' W 074°09'1 2.1
2018-Jul-17 05:00N 40°41' W 074°08'0 0.5
2018-Jul-17 04:30N 40°41' W 074°08'2 3.3
2018-Jul-17 04:00N 40°39' W 074°09'2 4.5
2018-Jul-17 03:27N 40°39' W 074°05'2 4.8
2018-Jul-17 03:01N 40°40' W 074°04'0 1.0
2018-Jul-17 02:30N 40°41' W 074°04'4 7.8
2018-Jul-17 02:00N 40°39' W 074°08'2 4.7
2018-Jul-17 01:30N 40°41' W 074°08'1 1.5
2018-Jul-17 01:00N 40°42' W 074°08'0 0.9
2018-Jul-17 00:30N 40°42' W 074°09'1 0.8
2018-Jul-16 23:30N 40°41' W 074°08'0 0.1
2018-Jul-16 22:53N 40°41' W 074°08'0 0.0
2018-Jul-16 22:27N 40°41' W 074°08'1 2.1
2018-Jul-16 22:00N 40°42' W 074°09'0 0.0
2018-Jul-16 21:30N 40°42' W 074°09'0 0.0
2018-Jul-16 21:00N 40°42' W 074°09'1 2.3
2018-Jul-16 20:30N 40°41' W 074°08'1 1.3
2018-Jul-16 20:00N 40°42' W 074°08'0 0.9
2018-Jul-16 19:27N 40°42' W 074°09'2 3.5
2018-Jul-16 19:00N 40°40' W 074°08'4 1.3
2018-Jul-16 15:59N 40°38' W 074°12'4 8.2
2018-Jul-16 15:30N 40°40' W 074°08'2 3.3
2018-Jul-16 14:59N 40°42' W 074°09'0 0.4
2018-Jul-16 14:30N 40°42' W 074°09'1 2.0
2018-Jul-16 14:00N 40°41' W 074°08'0 0.7
2018-Jul-16 13:30N 40°41' W 074°09'0 0.1
2018-Jul-16 13:00N 40°41' W 074°09'0 0.1
2018-Jul-16 12:29N 40°41' W 074°09'0 0.0
2018-Jul-16 12:00N 40°41' W 074°09'0 0.0
2018-Jul-16 11:30N 40°41' W 074°09'0 0.2
2018-Jul-16 11:00N 40°41' W 074°09'0 0.1
2018-Jul-16 10:31N 40°41' W 074°09'0 0.0
2018-Jul-16 09:55N 40°41' W 074°09'0 0.8
2018-Jul-16 09:30N 40°41' W 074°08'1 0.2
2018-Jul-16 02:38N 40°42' W 074°09'0 0.0
2018-Jul-16 02:11N 40°42' W 074°09'0 0.0
2018-Jul-16 02:00N 40°42' W 074°09'0 0.0
2018-Jul-16 01:30N 40°42' W 074°09'0 0.0
2018-Jul-16 00:53N 40°42' W 074°09'0 0.0
2018-Jul-16 00:30N 40°42' W 074°09'0 0.0
2018-Jul-16 00:00N 40°42' W 074°09'0 0.0
2018-Jul-15 23:30N 40°42' W 074°09'0 0.0
2018-Jul-15 23:00N 40°42' W 074°09'0 0.0
2018-Jul-15 22:30N 40°42' W 074°09'0 0.0
2018-Jul-15 22:00N 40°42' W 074°09'0 0.0
2018-Jul-15 21:30N 40°42' W 074°09'0 0.0
2018-Jul-15 21:00N 40°42' W 074°09'0 0.0
2018-Jul-15 20:30N 40°42' W 074°09'0 0.0
2018-Jul-15 19:59N 40°42' W 074°09'0 0.0
2018-Jul-15 19:30N 40°42' W 074°09'0 0.0
2018-Jul-15 19:00N 40°42' W 074°09'0 0.0
2018-Jul-15 18:30N 40°42' W 074°09'0 0.0
2018-Jul-15 18:00N 40°42' W 074°09'0 0.0
2018-Jul-15 17:28N 40°42' W 074°09'0 0.0
2018-Jul-15 17:00N 40°42' W 074°09'0 0.0
2018-Jul-15 16:12N 40°42' W 074°09'0 0.0
2018-Jul-15 15:59N 40°42' W 074°09'0 0.0
2018-Jul-15 15:29N 40°42' W 074°09'0 0.0
2018-Jul-15 14:59N 40°42' W 074°09'0 0.0
2018-Jul-15 14:25N 40°42' W 074°09'0 0.0
2018-Jul-15 13:17N 40°42' W 074°09'0 0.0
2018-Jul-15 11:55N 40°42' W 074°09'0 0.0
2018-Jul-15 11:29N 40°42' W 074°09'0 0.0
2018-Jul-15 10:52N 40°42' W 074°09'0 0.0
2018-Jul-15 10:23N 40°42' W 074°09'0 0.0
2018-Jul-15 09:59N 40°42' W 074°09'0 0.0
2018-Jul-15 09:29N 40°42' W 074°09'0 0.0
2018-Jul-15 09:00N 40°42' W 074°09'0 0.0
2018-Jul-15 08:30N 40°42' W 074°09'0 0.0
2018-Jul-15 08:00N 40°42' W 074°09'0 0.0
2018-Jul-15 07:29N 40°42' W 074°09'0 0.0
2018-Jul-15 07:00N 40°42' W 074°09'0 0.0
2018-Jul-15 06:30N 40°42' W 074°09'0 0.0
2018-Jul-15 06:00N 40°42' W 074°09'0 0.0
2018-Jul-15 05:30N 40°42' W 074°09'0 0.0
2018-Jul-15 05:00N 40°42' W 074°09'0 0.0
2018-Jul-15 04:30N 40°42' W 074°09'0 0.0
2018-Jul-15 04:00N 40°42' W 074°09'0 0.0
2018-Jul-15 03:30N 40°42' W 074°09'0 0.0
2018-Jul-15 03:00N 40°42' W 074°09'2 3.4
2018-Jul-15 02:30N 40°41' W 074°08'3 5.3
2018-Jul-15 02:00N 40°39' W 074°05'4 8.3
2018-Jul-15 01:30N 40°42' W 074°02'4 8.2
2018-Jul-15 01:00N 40°46' W 074°00'2 4.9
2018-Jul-15 00:30N 40°44' W 074°01'4 8.3
2018-Jul-15 00:00N 40°40' W 074°03'3 6.0
2018-Jul-14 23:30N 40°39' W 074°07'3 5.7
2018-Jul-14 23:00N 40°39' W 074°10'1 0.3
2018-Jul-14 17:04N 40°38' W 074°12'0 7.7
2018-Jul-14 17:00N 40°38' W 074°12'3 6.0
2018-Jul-14 16:30N 40°39' W 074°08'3 5.2
2018-Jul-14 16:00N 40°39' W 074°04'3 6.4
2018-Jul-14 15:30N 40°42' W 074°02'3 6.2
2018-Jul-14 15:00N 40°45' W 074°01'2 3.7
2018-Jul-14 14:30N 40°46' W 073°60'0 0.0
2018-Jul-14 12:49N 40°46' W 073°60'0 0.0
2018-Jul-14 12:20N 40°46' W 073°60'3 8.3
2018-Jul-14 12:00N 40°44' W 074°01'5 9.0
2018-Jul-14 11:30N 40°40' W 074°03'4 7.4
2018-Jul-14 11:00N 40°39' W 074°08'3 5.6
2018-Jul-14 10:30N 40°41' W 074°08'1 1.9
2018-Jul-14 10:00N 40°42' W 074°09'0 0.1
2018-Jul-14 09:30N 40°42' W 074°09'0 0.0
2018-Jul-14 09:00N 40°42' W 074°09'0 0.0
2018-Jul-14 08:30N 40°42' W 074°09'0 0.0
2018-Jul-14 07:54N 40°42' W 074°09'0 0.0
2018-Jul-14 07:30N 40°42' W 074°09'0 0.0
2018-Jul-14 07:00N 40°42' W 074°09'0 0.0
2018-Jul-14 06:30N 40°42' W 074°09'0 0.0
2018-Jul-14 06:00N 40°42' W 074°09'0 0.0
2018-Jul-14 05:30N 40°42' W 074°09'0 0.0
2018-Jul-14 05:00N 40°42' W 074°09'0 0.0
2018-Jul-14 04:30N 40°42' W 074°09'0 0.0
2018-Jul-14 04:00N 40°42' W 074°09'0 0.0
2018-Jul-14 03:30N 40°42' W 074°09'0 0.0
2018-Jul-14 03:00N 40°42' W 074°09'0 0.0
2018-Jul-14 02:30N 40°42' W 074°09'0 0.0
2018-Jul-14 02:00N 40°42' W 074°09'0 0.0
2018-Jul-14 01:30N 40°42' W 074°09'0 0.0
2018-Jul-14 01:00N 40°42' W 074°09'0 0.0
2018-Jul-14 00:29N 40°42' W 074°09'0 0.0
2018-Jul-14 00:00N 40°42' W 074°09'0 0.0
2018-Jul-13 23:30N 40°42' W 074°09'0 0.0
2018-Jul-13 23:00N 40°42' W 074°09'0 0.0
2018-Jul-13 22:29N 40°42' W 074°09'0 0.0
2018-Jul-13 22:00N 40°42' W 074°09'0 0.1
2018-Jul-13 21:30N 40°42' W 074°09'0 0.0
2018-Jul-13 20:50N 40°42' W 074°09'0 0.0
2018-Jul-13 20:30N 40°42' W 074°09'0 0.0
2018-Jul-13 19:10N 40°42' W 074°09'0 0.0
2018-Jul-13 18:56N 40°42' W 074°09'0 0.0
2018-Jul-13 18:29N 40°42' W 074°09'0 0.0
2018-Jul-13 17:53N 40°42' W 074°09'0 0.0
2018-Jul-13 17:27N 40°42' W 074°09'0 0.0
2018-Jul-13 17:00N 40°42' W 074°09'0 0.0
2018-Jul-13 16:30N 40°42' W 074°09'0 0.0
2018-Jul-13 16:00N 40°42' W 074°09'0 0.0
2018-Jul-13 15:28N 40°42' W 074°09'0 0.0
2018-Jul-13 14:59N 40°42' W 074°09'0 0.0
2018-Jul-13 14:00N 40°42' W 074°09'0 0.0
2018-Jul-13 13:26N 40°42' W 074°09'0 0.0
2018-Jul-13 12:59N 40°42' W 074°09'0 0.0
2018-Jul-13 12:25N 40°42' W 074°09'0 0.0
2018-Jul-13 12:00N 40°42' W 074°09'0 0.0
2018-Jul-13 11:28N 40°42' W 074°09'0 0.0
2018-Jul-13 10:58N 40°42' W 074°09'0 0.0
2018-Jul-13 09:05N 40°42' W 074°09'0 0.0
2018-Jul-13 09:00N 40°42' W 074°09'0 0.0
2018-Jul-13 07:57N 40°42' W 074°09'0 0.0
2018-Jul-13 07:29N 40°42' W 074°09'0 0.0
2018-Jul-13 07:00N 40°42' W 074°09'3 5.3
2018-Jul-13 06:30N 40°39' W 074°09'3 6.0
2018-Jul-13 06:01N 40°39' W 074°05'2 3.7
2018-Jul-13 05:30N 40°41' W 074°05'0 0.0
2018-Jul-13 05:00N 40°41' W 074°05'0 0.3
2018-Jul-13 04:30N 40°41' W 074°04'0 0.3
2018-Jul-13 04:00N 40°41' W 074°05'2 3.5
2018-Jul-13 03:30N 40°40' W 074°03'3 5.6
2018-Jul-13 03:00N 40°42' W 073°60'3 5.6
2018-Jul-13 02:30N 40°45' W 073°58'1 0.1
2018-Jul-12 09:12N 40°46' W 073°57'2 8.7
2018-Jul-12 09:00N 40°44' W 073°58'4 7.2
2018-Jul-12 08:30N 40°42' W 074°01'2 4.5
2018-Jul-12 08:00N 40°41' W 074°04'0 0.8
2018-Jul-12 07:30N 40°41' W 074°05'0 0.0
2018-Jul-12 07:00N 40°41' W 074°05'0 0.1
2018-Jul-12 06:30N 40°41' W 074°05'0 0.0
2018-Jul-12 06:00N 40°41' W 074°05'0 0.0
2018-Jul-12 05:30N 40°41' W 074°05'0 0.0
2018-Jul-12 05:00N 40°41' W 074°05'0 0.0
2018-Jul-12 04:30N 40°41' W 074°05'0 0.0
2018-Jul-12 04:00N 40°41' W 074°05'0 0.0
2018-Jul-12 03:30N 40°41' W 074°05'0 0.0
2018-Jul-12 03:00N 40°41' W 074°05'0 0.0
2018-Jul-12 02:30N 40°41' W 074°05'0 0.0
2018-Jul-12 02:00N 40°41' W 074°05'0 0.0
2018-Jul-12 01:30N 40°41' W 074°05'0 0.0
2018-Jul-12 01:00N 40°41' W 074°05'0 0.0
2018-Jul-12 00:30N 40°41' W 074°05'0 0.0
2018-Jul-12 00:00N 40°41' W 074°05'0 0.0
2018-Jul-11 23:30N 40°41' W 074°05'0 0.0
2018-Jul-11 23:00N 40°41' W 074°05'0 0.0
2018-Jul-11 22:30N 40°41' W 074°05'0 0.1
2018-Jul-11 22:01N 40°41' W 074°05'1 2.1
2018-Jul-11 21:30N 40°41' W 074°03'3 6.1
2018-Jul-11 21:00N 40°42' W 074°00'2 4.1
2018-Jul-11 20:30N 40°44' W 073°58'1 2.4
2018-Jul-11 20:01N 40°44' W 073°57'1 1.8
2018-Jul-11 19:30N 40°44' W 073°58'4 7.5
2018-Jul-11 19:00N 40°41' W 074°01'3 5.4
2018-Jul-11 18:30N 40°41' W 074°04'0 0.2
2018-Jul-11 18:00N 40°41' W 074°05'0 0.0
2018-Jul-11 17:30N 40°41' W 074°05'0 0.0
2018-Jul-11 17:00N 40°41' W 074°05'0 0.0
2018-Jul-11 16:30N 40°41' W 074°05'0 0.0
2018-Jul-11 16:00N 40°41' W 074°05'0 0.0
2018-Jul-11 15:30N 40°41' W 074°05'0 0.0
2018-Jul-11 15:00N 40°41' W 074°05'0 0.0
2018-Jul-11 14:30N 40°41' W 074°05'0 0.0
2018-Jul-11 14:00N 40°41' W 074°05'0 0.0
2018-Jul-11 13:30N 40°41' W 074°05'0 0.0
2018-Jul-11 13:00N 40°41' W 074°05'0 0.0
2018-Jul-11 12:30N 40°41' W 074°05'0 0.0
2018-Jul-11 12:00N 40°41' W 074°05'0 0.0
2018-Jul-11 11:30N 40°41' W 074°05'0 0.0
2018-Jul-11 11:00N 40°41' W 074°05'0 0.0
2018-Jul-11 10:30N 40°41' W 074°05'0 0.0
2018-Jul-11 10:00N 40°41' W 074°05'0 0.0
2018-Jul-11 09:30N 40°41' W 074°05'0 0.0
2018-Jul-11 09:00N 40°41' W 074°05'0 0.0
2018-Jul-11 08:30N 40°41' W 074°05'0 0.0
2018-Jul-11 08:00N 40°41' W 074°05'0 0.0
2018-Jul-11 07:29N 40°41' W 074°05'0 0.0
2018-Jul-11 07:00N 40°41' W 074°05'0 0.0
2018-Jul-11 06:30N 40°41' W 074°05'0 0.0
2018-Jul-11 06:00N 40°41' W 074°05'0 0.0
2018-Jul-11 05:30N 40°41' W 074°05'0 0.0
2018-Jul-11 05:00N 40°41' W 074°05'0 0.0
2018-Jul-11 04:30N 40°41' W 074°05'0 0.9
2018-Jul-11 04:00N 40°41' W 074°04'2 4.8
2018-Jul-11 03:30N 40°41' W 074°01'4 7.9
2018-Jul-11 03:00N 40°44' W 073°58'1 1.5
2018-Jul-11 02:30N 40°44' W 073°57'0 0.0
2018-Jul-11 01:09N 40°44' W 073°57'0 0.0
2018-Jul-11 00:59N 40°44' W 073°57'2 4.1
2018-Jul-11 00:30N 40°43' W 073°58'4 7.0
2018-Jul-11 00:00N 40°41' W 074°02'2 4.1
2018-Jul-10 23:30N 40°41' W 074°05'1 1.1
2018-Jul-10 23:00N 40°41' W 074°04'4 8.0
2018-Jul-10 22:30N 40°39' W 074°08'3 6.9
2018-Jul-10 22:00N 40°42' W 074°09'0 0.0
2018-Jul-10 20:24N 40°42' W 074°09'0 0.0
2018-Jul-10 19:59N 40°42' W 074°09'0 0.0
2018-Jul-10 19:30N 40°42' W 074°09'0 0.0
2018-Jul-10 19:00N 40°42' W 074°09'0 0.0
2018-Jul-10 18:30N 40°42' W 074°09'0 0.0
2018-Jul-10 18:00N 40°42' W 074°09'0 0.0
2018-Jul-10 17:30N 40°42' W 074°09'0 0.0
2018-Jul-10 17:00N 40°42' W 074°09'0 0.0
2018-Jul-10 16:30N 40°42' W 074°09'0 0.0
2018-Jul-10 16:00N 40°42' W 074°09'0 0.0
2018-Jul-10 15:30N 40°42' W 074°09'0 0.0
2018-Jul-10 14:54N 40°42' W 074°09'0 0.0
2018-Jul-10 14:29N 40°42' W 074°09'0 0.0
2018-Jul-10 14:00N 40°42' W 074°09'0 0.0
2018-Jul-10 13:30N 40°42' W 074°09'0 0.0
2018-Jul-10 12:59N 40°42' W 074°09'0 0.0
2018-Jul-10 12:30N 40°42' W 074°09'0 0.0
2018-Jul-10 12:00N 40°42' W 074°09'0 0.0
2018-Jul-10 11:30N 40°42' W 074°09'0 0.0
2018-Jul-10 11:00N 40°42' W 074°09'0 0.0
2018-Jul-10 10:30N 40°42' W 074°09'0 0.0
2018-Jul-10 09:58N 40°42' W 074°09'0 0.0
2018-Jul-10 09:30N 40°42' W 074°09'0 0.0
2018-Jul-10 08:59N 40°42' W 074°09'0 0.0
2018-Jul-10 08:28N 40°42' W 074°09'0 0.0
2018-Jul-10 07:57N 40°42' W 074°09'0 0.0
2018-Jul-10 07:29N 40°42' W 074°09'0 0.0
2018-Jul-10 06:59N 40°42' W 074°09'0 0.0
2018-Jul-10 06:30N 40°42' W 074°09'0 0.0
2018-Jul-10 05:57N 40°42' W 074°09'0 0.0
2018-Jul-10 05:29N 40°42' W 074°09'0 0.0
2018-Jul-10 04:59N 40°42' W 074°09'0 0.0
2018-Jul-10 04:30N 40°42' W 074°09'0 0.0
2018-Jul-10 04:00N 40°42' W 074°09'0 0.0
2018-Jul-10 03:26N 40°42' W 074°09'0 0.0
2018-Jul-10 02:59N 40°42' W 074°09'  

Dump ship's entire track history